Barona Mesa (973) Station Data

Red Flag Warning: No
Fire Weather Zone: 250
SDGE Region: Ramona
Lat/Lon: 32.978/-116.78

Observations

Time Wind Speed/Gust Temp(F) RH Fuel Moist Fuel Temp(F) Dewpt(F) Tmax(F) Tmin(F) Accum Precip 10-min Precip SL Press(mb)
4/26 2:40am 16 2 G 4 53° 79% - - 46° 55.4° 52.1° - - -
4/26 2:30am 331 2 G 2 53° 78% - - 47° 55.4° 52.6° - - -
4/26 2:20am 344 3 G 4 53° 78% - - 47° 55.4° 52.6° - - -
4/26 2:10am 306 3 G 4 53° 79% - - 47° 55.4° 52.6° - - -
4/26 2:00am 306 1 G 3 54° 77% - - 47° 55.4° 53.1° - - -
4/26 1:50am 303 1 G 2 54° 77% - - 47° 55.4° 53.5° - - -
4/26 1:40am 270 0 G 2 54° 77% - - 47° 55.4° 53.5° - - -
4/26 1:30am 264 0 G 2 54° 76% - - 47° 55.4° 53.6° - - -
4/26 1:20am 0 0 G 0 54° 77% - - 47° 55.4° 53.6° - - -
4/26 1:10am 124 1 G 2 54° 76% - - 47° 55.4° 53.6° - - -
4/26 1:00am 167 3 G 4 55° 75% - - 47° 55.4° 54° - - -
4/26 12:50am 160 3 G 4 55° 75% - - 47° 55.2° 54° - - -
4/26 12:40am 140 3 G 4 55° 76% - - 47° 55.2° 54° - - -
4/26 12:30am 142 4 G 5 54° 76% - - 47° 55.2° 54° - - -
4/26 12:20am 137 4 G 5 55° 76% - - 47° 55.2° 54° - - -
4/26 12:10am 150 2 G 3 54° 77% - - 47° 55° 54° - - -
4/26 12:00am 147 2 G 3 54° 77% - - 47° 64.9° 50.9° - - -
4/25 11:50pm 136 2 G 4 54° 77% - - 47° 64.9° 50.9° - - -
4/25 11:40pm 143 3 G 4 54° 77% - - 47° 64.9° 50.9° - - -
4/25 11:30pm 134 4 G 5 54° 77% - - 47° 64.9° 50.9° - - -
4/25 11:20pm 117 4 G 4 54° 77% - - 47° 64.9° 50.9° - - -
4/25 11:10pm 105 4 G 5 55° 75% - - 47° 64.9° 50.9° - - -
4/25 11:00pm 102 3 G 5 54° 76% - - 47° 64.9° 50.9° - - -
4/25 10:50pm 111 3 G 4 54° 76% - - 47° 64.9° 50.9° - - -
4/25 10:40pm 137 3 G 4 54° 75% - - 46° 64.9° 50.9° - - -
4/25 10:30pm 144 2 G 4 55° 72% - - 46° 64.9° 50.9° - - -
4/25 10:20pm 285 1 G 2 55° 72% - - 46° 64.9° 50.9° - - -
4/25 10:10pm 309 2 G 3 55° 72% - - 46° 64.9° 50.9° - - -
4/25 10:00pm 341 2 G 2 55° 73% - - 46° 64.9° 50.9° - - -
4/25 9:50pm 332 2 G 3 55° 73% - - 46° 64.9° 50.9° - - -
4/25 9:40pm 317 3 G 4 55° 72% - - 46° 64.9° 50.9° - - -
4/25 9:30pm 312 3 G 4 55° 72% - - 46° 64.9° 50.9° - - -
4/25 9:20pm 303 4 G 5 55° 72% - - 46° 64.9° 50.9° - - -
4/25 9:10pm 305 4 G 5 55° 72% - - 46° 64.9° 50.9° - - -
4/25 9:00pm 294 4 G 5 55° 74% - - 46° 64.9° 50.9° - - -
4/25 8:50pm 282 4 G 5 55° 75% - - 47° 64.9° 50.9° - - -
4/25 8:40pm 289 4 G 6 55° 75% - - 47° 64.9° 50.9° - - -
4/25 8:30pm 275 4 G 5 55° 74% - - 47° 64.9° 50.9° - - -
4/25 8:20pm 279 3 G 5 55° 74% - - 47° 64.9° 50.9° - - -
4/25 8:10pm 248 3 G 5 55° 74% - - 47° 64.9° 50.9° - - -
4/25 8:00pm 271 3 G 6 55° 73% - - 47° 64.9° 50.9° - - -
4/25 7:50pm 297 5 G 6 56° 72% - - 47° 64.9° 50.9° - - -
4/25 7:40pm 304 6 G 7 56° 71% - - 47° 64.9° 50.9° - - -
4/25 7:30pm 298 4 G 5 57° 71% - - 47° 64.9° 50.9° - - -
4/25 7:20pm 305 6 G 9 57° 69% - - 48° 64.9° 50.9° - - -
4/25 7:10pm 306 8 G 11 58° 69% - - 48° 64.9° 50.9° - - -
4/25 7:00pm 308 9 G 13 59° 67% - - 48° 64.9° 50.9° - - -
4/25 6:50pm 292 6 G 12 59° 67% - - 48° 64.9° 50.9° - - -
4/25 6:40pm 262 7 G 11 59° 66% - - 48° 64.9° 50.9° - - -
4/25 6:30pm 250 9 G 13 60° 66% - - 48° 64.9° 50.9° - - -
4/25 6:20pm 250 10 G 14 60° 66% - - 49° 64.9° 50.9° - - -
4/25 6:10pm 252 7 G 11 60° 67% - - 50° 64.9° 50.9° - - -
4/25 6:00pm 262 6 G 11 61° 68% - - 50° 64.9° 50.9° - - -
4/25 5:50pm 237 7 G 12 61° 68% - - 50° 64.9° 50.9° - - -
4/25 5:40pm 245 9 G 13 61° 68% - - 50° 64.9° 50.9° - - -
4/25 5:30pm 245 8 G 13 61° 67% - - 50° 64.9° 50.9° - - -
4/25 5:20pm 239 8 G 13 61° 67% - - 50° 64.9° 50.9° - - -
4/25 5:10pm 241 8 G 13 61° 66% - - 50° 64.9° 50.9° - - -
4/25 5:00pm 248 8 G 12 62° 65% - - 50° 64.9° 50.9° - - -
4/25 4:50pm 241 7 G 13 62° 64% - - 50° 64.9° 50.9° - - -
4/25 4:40pm 254 9 G 15 62° 63% - - 50° 64.9° 50.9° - - -
4/25 4:30pm 238 10 G 15 63° 62% - - 49° 64.9° 50.9° - - -
4/25 4:20pm 254 7 G 14 63° 61% - - 49° 64.9° 50.9° - - -
4/25 4:10pm 265 8 G 12 63° 61% - - 50° 64.9° 50.9° - - -
4/25 4:00pm 272 7 G 13 63° 62% - - 50° 64.9° 50.9° - - -
4/25 3:50pm 277 7 G 12 63° 62% - - 50° 64.9° 50.9° - - -
4/25 3:40pm 281 7 G 14 62° 63% - - 50° 64.9° 50.9° - - -
4/25 3:30pm 272 8 G 12 63° 62% - - 50° 64.9° 50.9° - - -
4/25 3:20pm 257 8 G 12 63° 62% - - 49° 64.9° 50.9° - - -
4/25 3:10pm 249 8 G 14 63° 62% - - 50° 64.9° 50.9° - - -
4/25 3:00pm 242 7 G 12 63° 61% - - 50° 64.9° 50.9° - - -
4/25 2:50pm 231 7 G 12 63° 61% - - 50° 64.9° 50.9° - - -
4/25 2:40pm 245 7 G 15 64° 60% - - 50° 64.9° 50.9° - - -
4/25 2:30pm 262 8 G 12 64° 59% - - 49° 64.9° 50.9° - - -
4/25 2:20pm 283 6 G 11 64° 59% - - 49° 64.9° 50.9° - - -
4/25 2:10pm 279 6 G 13 64° 59% - - 49° 64.9° 50.9° - - -
4/25 2:00pm 274 7 G 13 63° 61% - - 49° 64.9° 50.9° - - -
4/25 1:50pm 283 7 G 13 63° 60% - - 49° 64.9° 50.9° - - -
4/25 1:40pm 265 8 G 13 64° 59% - - 49° 64.9° 50.9° - - -
4/25 1:30pm 247 7 G 12 63° 58% - - 49° 64.8° 50.9° - - -
4/25 1:20pm 261 8 G 14 64° 57% - - 48° 64.8° 50.9° - - -
4/25 1:10pm 281 6 G 12 63° 56% - - 48° 64.8° 50.9° - - -
4/25 1:00pm 279 7 G 11 63° 57% - - 47° 64.8° 50.9° - - -
4/25 12:50pm 273 9 G 19 63° 57% - - 48° 64.8° 50.9° - - -
4/25 12:40pm 272 7 G 14 63° 55% - - 47° 64.8° 50.9° - - -
4/25 12:30pm 286 8 G 14 63° 57% - - 48° 64.5° 50.9° - - -
4/25 12:20pm 273 7 G 16 63° 58% - - 48° 64.1° 50.9° - - -
4/25 12:10pm 303 7 G 14 62° 58% - - 47° 63.8° 50.9° - - -
4/25 12:00pm 289 9 G 14 62° 58% - - 47° 63.8° 50.9° - - -
4/25 11:50am 300 8 G 13 62° 57% - - 47° 63.2° 50.9° - - -
4/25 11:40am 296 7 G 14 62° 58% - - 47° 62.8° 50.9° - - -
4/25 11:30am 276 7 G 11 62° 57% - - 46° 62.8° 50.9° - - -
4/25 11:20am 272 6 G 12 61° 57% - - 46° 62.6° 50.9° - - -
4/25 11:10am 283 6 G 10 61° 61% - - 47° 62.6° 50.9° - - -
4/25 11:00am 294 6 G 10 61° 60% - - 47° 61.9° 50.9° - - -
4/25 10:50am 246 5 G 10 60° 63% - - 47° 61.2° 50.9° - - -
4/25 10:40am 272 5 G 9 59° 63% - - 47° 61.2° 50.9° - - -
4/25 10:30am 278 4 G 10 60° 59% - - 46° 61.2° 50.9° - - -
4/25 10:20am 291 5 G 9 59° 64% - - 47° 61.2° 50.9° - - -
4/25 10:10am 246 5 G 11 59° 64% - - 47° 61.2° 50.9° - - -
4/25 10:00am 255 3 G 8 59° 67% - - 48° 61.2° 50.9° - - -
4/25 9:50am 221 5 G 9 58° 70% - - 48° 58.3° 50.9° - - -
4/25 9:40am 234 5 G 9 57° 73% - - 49° 58° 50.9° - - -
4/25 9:30am 222 3 G 8 57° 73% - - 49° 58° 50.9° - - -
4/25 9:20am 235 4 G 7 57° 74% - - 48° 57.5° 50.9° - - -
4/25 9:10am 253 4 G 7 57° 74% - - 49° 57.5° 50.9° - - -
4/25 9:00am 248 5 G 9 56° 75% - - 48° 56.6° 50.9° - - -
4/25 8:50am 219 4 G 8 55° 80% - - 49° 56.3° 50.9° - - -
4/25 8:40am 176 3 G 6 55° 82% - - 50° 56° 50.9° - - -
4/25 8:30am 159 1 G 5 55° 83% - - 50° 55.6° 50.9° - - -
4/25 8:20am 106 1 G 3 54° 84% - - 49° 55° 50.9° - - -
4/25 8:10am 123 1 G 3 54° 84% - - 50° 54.8° 50.9° - - -
4/25 8:00am 339 2 G 4 54° 87% - - 50° 54.5° 50.9° - - -
4/25 7:50am 337 3 G 5 53° 87% - - 50° 53.8° 50.9° - - -
4/25 7:40am 335 3 G 5 53° 87% - - 49° 53.8° 50.9° - - -
4/25 7:30am 323 3 G 6 53° 87% - - 49° 53.8° 50.9° - - -
4/25 7:20am 356 2 G 4 53° 87% - - 49° 53.8° 50.9° - - -
4/25 7:10am 313 1 G 2 53° 88% - - 49° 53.8° 50.9° - - -
4/25 7:00am 94 1 G 2 52° 89% - - 49° 53.8° 50.9° - - -
4/25 6:50am 113 2 G 3 52° 89% - - 49° 53.8° 50.9° - - -
4/25 6:40am 74 1 G 2 52° 89% - - 48° 53.8° 50.9° - - -
4/25 6:30am 35 1 G 2 51° 89% - - 48° 53.8° 50.9° - - -
4/25 6:20am 283 1 G 2 51° 89% - - 48° 53.8° 50.9° - - -
4/25 6:10am 261 2 G 4 52° 88% - - 48° 53.8° 50.9° - - -
4/25 6:00am 234 3 G 4 52° 89% - - 48° 53.8° 50.9° - - -
4/25 5:50am 261 3 G 4 51° 87% - - 48° 53.8° 50.9° - - -
4/25 5:40am 202 1 G 2 52° 87% - - 48° 53.8° 50.9° - - -
4/25 5:30am 195 0 G 2 51° 88% - - 48° 53.8° 50.9° - - -
4/25 5:20am 238 1 G 2 51° 88% - - 48° 53.8° 50.9° - - -
4/25 5:10am 124 2 G 3 52° 88% - - 48° 53.8° 51.1° - - -
4/25 5:00am 131 2 G 2 52° 88% - - 48° 53.8° 51.4° - - -
4/25 4:50am 115 2 G 4 52° 88% - - 48° 53.8° 51.4° - - -
4/25 4:40am 126 2 G 3 52° 87% - - 48° 53.8° 51.7° - - -
4/25 4:30am 135 2 G 3 52° 87% - - 48° 53.8° 51.7° - - -
4/25 4:20am 120 2 G 3 52° 86% - - 48° 53.8° 51.9° - - -
4/25 4:10am 147 2 G 4 52° 85% - - 48° 53.8° 51.9° - - -
4/25 4:00am 164 3 G 6 53° 84% - - 48° 53.8° 52.2° - - -
4/25 3:50am 185 6 G 9 53° 86% - - 49° 53.8° 52.2° - - -
4/25 3:40am 202 5 G 9 53° 87% - - 49° 53.8° 52.2° - - -
4/25 3:30am 186 5 G 10 53° 89% - - 49° 53.8° 52.2° - - -
4/25 3:20am 199 3 G 6 53° 89% - - 49° 53.8° 52.4° - - -
4/25 3:10am 219 4 G 6 53° 88% - - 49° 53.8° 52.4° - - -
4/25 3:00am 224 4 G 8 53° 87% - - 49° 53.8° 52.5° - - -
4/25 2:50am 224 4 G 6 53° 87% - - 49° 53.8° 52.5° - - -
4/25 2:40am 224 4 G 9 53° 86% - - 49° 53.8° 52.5° - - -
4/25 2:30am 193 5 G 9 53° 86% - - 49° 53.8° 52.5° - - -
4/25 2:20am 189 5 G 9 53° 86% - - 49° 53.8° 52.5° - - -
4/25 2:10am 175 7 G 11 53° 85% - - 49° 53.8° 52.5° - - -
4/25 2:00am 175 6 G 11 53° 85% - - 49° 53.8° 52.5° - - -
4/25 1:50am 184 7 G 10 53° 85% - - 48° 53.8° 52.5° - - -
4/25 1:40am 183 6 G 9 53° 84% - - 48° 53.8° 52.7° - - -
4/25 1:30am 194 7 G 10 53° 83% - - 48° 53.8° 52.7° - - -
4/25 1:20am 208 6 G 9 53° 84% - - 48° 53.8° 52.7° - - -
4/25 1:10am 205 5 G 8 53° 84% - - 48° 53.8° 52.7° - - -
4/25 1:00am 203 5 G 8 53° 86% - - 49° 53.8° 52.7° - - -
4/25 12:50am 204 6 G 10 53° 87% - - 49° 53.8° 52.7° - - -
4/25 12:40am 162 7 G 15 53° 86% - - 49° 53.8° 52.7° - - -
4/25 12:30am 161 4 G 10 53° 86% - - 49° 53.6° 52.7° - - -
4/25 12:20am 158 7 G 11 53° 86% - - 49° 53.6° 52.7° - - -
4/25 12:10am 154 7 G 12 53° 85% - - 49° 53.6° 52.7° - - -
4/25 12:00am 160 7 G 13 53° 84% - - 48° 69.4° 50° - - -
4/24 11:50pm 194 6 G 11 53° 84% - - 48° 69.4° 50° - - -
4/24 11:40pm 226 5 G 9 53° 84% - - 48° 69.4° 50° - - -
4/24 11:30pm 253 7 G 12 53° 85% - - 49° 69.4° 50° - - -
4/24 11:20pm 258 7 G 10 53° 86% - - 49° 69.4° 50° - - -
4/24 11:10pm 270 5 G 9 54° 87% - - 50° 69.4° 50° - - -
4/24 11:00pm 260 2 G 4 54° 87% - - 50° 69.4° 50° - - -
4/24 10:50pm 247 3 G 6 54° 87% - - 50° 69.4° 50° - - -
4/24 10:40pm 235 4 G 7 54° 87% - - 50° 69.4° 50° - - -
4/24 10:30pm 217 3 G 5 54° 86% - - 50° 69.4° 50° - - -
4/24 10:20pm 204 4 G 7 54° 86% - - 50° 69.4° 50° - - -
4/24 10:10pm 221 4 G 7 54° 86% - - 50° 69.4° 50° - - -
4/24 10:00pm 236 4 G 7 54° 85% - - 50° 69.4° 50° - - -
4/24 9:50pm 213 4 G 6 55° 85% - - 50° 69.4° 50° - - -
4/24 9:40pm 240 3 G 5 55° 86% - - 51° 69.4° 50° - - -
4/24 9:30pm 250 3 G 5 54° 86% - - 51° 69.4° 50° - - -
4/24 9:20pm 248 4 G 6 55° 85% - - 50° 69.4° 50° - - -
4/24 9:10pm 236 5 G 8 55° 84% - - 50° 69.4° 50° - - -
4/24 9:00pm 250 5 G 9 55° 83% - - 50° 69.4° 50° - - -
4/24 8:50pm 265 5 G 9 55° 84% - - 50° 69.4° 50° - - -
4/24 8:40pm 275 4 G 7 55° 84% - - 50° 69.4° 50° - - -
4/24 8:30pm 263 4 G 8 55° 83% - - 50° 69.4° 50° - - -
4/24 8:20pm 256 6 G 11 55° 84% - - 50° 69.4° 50° - - -
4/24 8:10pm 260 6 G 9 55° 85% - - 51° 69.4° 50° - - -
4/24 8:00pm 266 6 G 9 56° 85% - - 51° 69.4° 50° - - -
4/24 7:50pm 273 5 G 8 56° 84% - - 51° 69.4° 50° - - -
4/24 7:40pm 269 5 G 9 56° 83% - - 51° 69.4° 50° - - -
4/24 7:30pm 258 5 G 10 57° 82% - - 51° 69.4° 50° - - -
4/24 7:20pm 268 6 G 10 57° 81% - - 51° 69.4° 50° - - -
4/24 7:10pm 262 6 G 10 58° 79% - - 51° 69.4° 50° - - -
4/24 7:00pm 258 5 G 9 58° 78% - - 51° 69.4° 50° - - -
4/24 6:50pm 257 6 G 9 59° 76% - - 51° 69.4° 50° - - -
4/24 6:40pm 264 5 G 8 59° 75% - - 51° 69.4° 50° - - -
4/24 6:30pm 245 5 G 9 59° 73% - - 51° 69.4° 50° - - -
4/24 6:20pm 247 7 G 11 60° 70% - - 50° 69.4° 50° - - -
4/24 6:10pm 244 7 G 12 60° 70% - - 50° 69.4° 50° - - -
4/24 6:00pm 238 8 G 13 61° 68% - - 50° 69.4° 50° - - -